createdAt,value
2018-04-08T00:02:20.824Z,5.73
2018-04-08T00:04:50.723Z,6.37
2018-04-08T00:07:19.781Z,6.33
2018-04-08T00:09:48.761Z,5.77
2018-04-08T00:12:18.951Z,6.10
2018-04-08T00:14:48.798Z,5.40
2018-04-08T00:19:52.171Z,5.07
2018-04-08T00:22:21.273Z,5.30
2018-04-08T00:24:50.231Z,5.80
2018-04-08T00:27:19.082Z,5.10
2018-04-08T00:29:48.250Z,6.23
2018-04-08T00:32:18.272Z,6.03
2018-04-08T00:34:48.390Z,5.97
2018-04-08T00:37:17.691Z,5.53
2018-04-08T00:39:49.657Z,6.20
2018-04-08T00:42:20.494Z,6.73
2018-04-08T00:44:50.541Z,6.17
2018-04-08T00:47:19.554Z,7.07
2018-04-08T00:49:49.424Z,5.97
2018-04-08T00:54:55.118Z,5.53
2018-04-08T00:57:24.870Z,5.50
2018-04-08T00:59:55.122Z,5.17
2018-04-08T01:02:23.808Z,5.40
2018-04-08T01:04:53.397Z,5.07
2018-04-08T01:07:23.764Z,6.00
2018-04-08T01:09:52.735Z,5.77
2018-04-08T01:12:22.544Z,5.13
2018-04-08T01:14:51.520Z,5.60
2018-04-08T01:17:21.069Z,5.50
2018-04-08T01:19:50.122Z,5.73
2018-04-08T01:22:20.965Z,5.17
2018-04-08T01:24:51.587Z,5.30
2018-04-08T01:27:21.397Z,5.67
2018-04-08T01:29:50.388Z,4.30
2018-04-08T01:32:19.418Z,4.70
2018-04-08T01:34:49.482Z,5.60
2018-04-08T01:37:18.496Z,5.00
2018-04-08T01:39:50.942Z,4.60
2018-04-08T01:42:20.158Z,4.90
2018-04-08T01:44:49.168Z,5.40
2018-04-08T01:47:24.196Z,5.33
2018-04-08T01:49:53.236Z,4.30
2018-04-08T01:52:22.287Z,4.60
2018-04-08T01:54:52.291Z,5.00
2018-04-08T01:57:21.454Z,4.43
2018-04-08T01:59:54.807Z,4.70
2018-04-08T02:02:23.939Z,4.40
2018-04-08T02:04:53.953Z,4.93
2018-04-08T02:07:23.217Z,4.03
2018-04-08T02:09:53.890Z,4.10
2018-04-08T02:12:22.840Z,4.10
2018-04-08T02:14:52.148Z,4.30
2018-04-08T02:17:22.266Z,5.60
2018-04-08T02:19:51.262Z,3.77
2018-04-08T02:22:23.553Z,4.80
2018-04-08T02:24:52.525Z,3.20
2018-04-08T02:27:21.723Z,4.23
2018-04-08T02:32:27.294Z,4.23
2018-04-08T02:34:57.480Z,4.17
2018-04-08T02:37:28.243Z,3.90
2018-04-08T02:39:58.872Z,4.23
2018-04-08T02:42:27.935Z,4.80
2018-04-08T02:44:56.858Z,4.23
2018-04-08T02:47:25.968Z,4.87
2018-04-08T02:49:54.938Z,4.13
2018-04-08T02:52:25.005Z,4.80
2018-04-08T02:54:54.079Z,5.57
2018-04-08T02:57:23.412Z,5.30
2018-04-08T02:59:55.128Z,5.30
2018-04-08T03:02:24.972Z,5.50
2018-04-08T03:04:57.973Z,5.80
2018-04-08T03:07:27.039Z,5.97
2018-04-08T03:09:57.905Z,7.13
2018-04-08T03:15:01.896Z,6.67
2018-04-08T03:17:31.739Z,6.93
2018-04-08T03:20:03.263Z,6.13
2018-04-08T03:22:33.190Z,6.60
2018-04-08T03:25:03.157Z,5.93
2018-04-08T03:30:08.351Z,5.70
2018-04-08T03:32:37.349Z,6.30
2018-04-08T03:35:07.479Z,6.33
2018-04-08T03:37:37.629Z,5.70
2018-04-08T03:40:10.172Z,6.80
2018-04-08T03:42:44.569Z,7.00
2018-04-08T03:45:13.691Z,7.03
2018-04-08T03:47:43.409Z,8.20
2018-04-08T03:50:14.179Z,7.47
2018-04-08T03:52:43.275Z,6.77
2018-04-08T03:55:12.358Z,8.03
2018-04-08T03:57:41.552Z,8.53
2018-04-08T04:00:10.762Z,7.73
2018-04-08T04:02:39.852Z,8.13
2018-04-08T04:05:08.850Z,7.60
2018-04-08T04:07:38.098Z,7.53
2018-04-08T04:10:07.209Z,7.43
2018-04-08T04:12:37.180Z,7.97
2018-04-08T04:15:06.428Z,7.80
2018-04-08T04:17:36.341Z,8.00
2018-04-08T04:20:20.148Z,7.87
2018-04-08T04:23:00.852Z,7.17
2018-04-08T04:28:35.082Z,7.00
2018-04-08T04:31:08.321Z,6.73
2018-04-08T04:33:45.172Z,7.07
2018-04-08T04:36:15.228Z,6.37
2018-04-08T04:38:45.042Z,6.33
2018-04-08T04:41:14.013Z,5.53
2018-04-08T04:43:43.422Z,6.17
2018-04-08T04:46:12.629Z,5.20
2018-04-08T04:48:42.652Z,6.23
2018-04-08T04:51:13.473Z,5.60
2018-04-08T04:53:42.680Z,6.87
2018-04-08T04:56:11.777Z,6.83
2018-04-08T04:58:41.665Z,5.90
2018-04-08T05:01:11.593Z,6.00
2018-04-08T05:03:43.205Z,5.97
2018-04-08T05:06:12.194Z,6.57
2018-04-08T05:08:41.853Z,5.87
2018-04-08T05:11:10.950Z,5.97
2018-04-08T05:13:40.164Z,6.97
2018-04-08T05:16:09.084Z,7.23
2018-04-08T05:18:39.838Z,6.47
2018-04-08T05:21:08.955Z,6.33
2018-04-08T05:23:38.200Z,6.57
2018-04-08T05:28:41.183Z,6.90
2018-04-08T05:31:10.245Z,6.30
2018-04-08T05:33:42.367Z,6.90
2018-04-08T05:36:12.543Z,6.60
2018-04-08T05:38:41.716Z,7.10
2018-04-08T05:41:12.040Z,6.60
2018-04-08T05:43:42.190Z,6.07
2018-04-08T05:46:11.098Z,8.10
2018-04-08T05:51:15.078Z,6.53
2018-04-08T05:53:44.223Z,7.07
2018-04-08T05:56:15.199Z,7.83
2018-04-08T05:58:44.928Z,8.23
2018-04-08T06:01:14.138Z,8.33
2018-04-08T06:03:46.217Z,7.80
2018-04-08T06:06:15.396Z,8.77
2018-04-08T06:08:44.383Z,7.87
2018-04-08T06:11:14.332Z,7.90
2018-04-08T06:13:43.402Z,7.60
2018-04-08T06:16:12.500Z,8.03
2018-04-08T06:18:41.645Z,7.40
2018-04-08T06:21:10.629Z,9.20
2018-04-08T06:23:39.583Z,9.43
2018-04-08T06:26:11.243Z,9.33
2018-04-08T06:28:40.260Z,9.73
2018-04-08T06:31:09.429Z,9.77
2018-04-08T06:36:13.474Z,9.33
2018-04-08T06:38:42.825Z,10.57
2018-04-08T06:41:14.888Z,9.17
2018-04-08T06:43:44.123Z,9.00
2018-04-08T06:46:13.815Z,9.00
2018-04-08T06:48:45.279Z,9.50
2018-04-08T06:51:15.202Z,8.63
2018-04-08T06:53:45.335Z,9.90
2018-04-08T06:56:15.652Z,9.57
2018-04-08T06:58:44.645Z,9.43
2018-04-08T07:01:14.559Z,9.40
2018-04-08T07:06:21.493Z,9.63
2018-04-08T07:08:51.513Z,9.47
2018-04-08T07:11:20.504Z,8.50
2018-04-08T07:13:50.468Z,9.10
2018-04-08T07:16:19.457Z,7.70
2018-04-08T07:18:49.138Z,8.27
2018-04-08T07:21:18.984Z,8.83
2018-04-08T07:23:48.032Z,9.50
2018-04-08T07:26:17.320Z,8.63
2018-04-08T07:28:54.461Z,8.30
2018-04-08T07:31:25.335Z,9.03
2018-04-08T07:33:55.146Z,9.50
2018-04-08T07:36:25.927Z,8.60
2018-04-08T07:38:55.622Z,8.57
2018-04-08T07:41:25.705Z,8.10
2018-04-08T07:43:56.007Z,7.43
2018-04-08T07:46:25.306Z,8.07
2018-04-08T07:48:54.410Z,7.83
2018-04-08T07:51:25.909Z,7.13
2018-04-08T07:53:55.202Z,7.37
2018-04-08T07:56:25.201Z,7.30
2018-04-08T07:58:55.038Z,6.83
2018-04-08T08:01:24.102Z,8.10
2018-04-08T08:03:54.039Z,7.03
2018-04-08T08:08:58.113Z,6.47
2018-04-08T08:11:29.098Z,6.97
2018-04-08T08:13:58.388Z,7.30
2018-04-08T08:16:27.931Z,7.03
2018-04-08T08:18:56.799Z,7.27
2018-04-08T08:21:27.713Z,6.80
2018-04-08T08:23:57.243Z,6.10
2018-04-08T08:26:26.139Z,7.50
2018-04-08T08:28:56.068Z,7.33
2018-04-08T08:31:25.192Z,6.70
2018-04-08T08:33:55.186Z,7.27
2018-04-08T08:36:26.677Z,7.27
2018-04-08T08:38:55.651Z,6.97
2018-04-08T08:41:24.814Z,6.47
2018-04-08T08:43:53.902Z,6.20
2018-04-08T08:46:23.851Z,6.60
2018-04-08T08:48:52.966Z,6.70
2018-04-08T08:54:00.220Z,7.10
2018-04-08T08:56:29.392Z,6.20
2018-04-08T08:58:58.307Z,6.17
2018-04-08T09:01:29.115Z,6.93
2018-04-08T09:03:59.009Z,6.87
2018-04-08T09:06:28.126Z,6.27
2018-04-08T09:09:00.746Z,7.40
2018-04-08T09:11:29.986Z,7.37
2018-04-08T09:14:01.626Z,6.73
2018-04-08T09:16:30.794Z,8.10
2018-04-08T09:19:11.876Z,7.47
2018-04-08T09:21:52.740Z,7.90
2018-04-08T09:26:59.951Z,7.90
2018-04-08T09:29:29.703Z,7.50
2018-04-08T09:31:58.772Z,7.57
2018-04-08T09:34:28.057Z,7.00
2018-04-08T09:36:58.309Z,8.40
2018-04-08T09:39:27.540Z,7.10
2018-04-08T09:41:56.729Z,8.10
2018-04-08T09:44:25.660Z,7.47
2018-04-08T09:46:55.211Z,7.73
2018-04-08T09:49:24.055Z,7.80
2018-04-08T09:51:53.014Z,7.77
2018-04-08T09:54:22.359Z,8.17
2018-04-08T09:56:52.535Z,8.00
2018-04-08T09:59:22.521Z,6.73
2018-04-08T10:04:25.564Z,8.10
2018-04-08T10:06:54.853Z,6.90
2018-04-08T10:09:25.737Z,8.20
2018-04-08T10:11:58.396Z,7.47
2018-04-08T10:14:27.358Z,7.97
2018-04-08T10:16:56.242Z,6.93
2018-04-08T10:19:25.157Z,7.50
2018-04-08T10:21:54.168Z,7.07
2018-04-08T10:24:23.083Z,8.43
2018-04-08T10:26:51.911Z,7.47
2018-04-08T10:29:22.596Z,7.30
2018-04-08T10:31:53.855Z,7.17
2018-04-08T10:34:24.292Z,7.40
2018-04-08T10:36:53.242Z,6.60
2018-04-08T10:39:22.329Z,8.20
2018-04-08T10:41:52.091Z,8.00
2018-04-08T10:44:21.504Z,7.30
2018-04-08T10:46:50.474Z,8.53
2018-04-08T10:49:21.307Z,7.40
2018-04-08T10:51:50.645Z,7.43
2018-04-08T10:54:19.945Z,7.40
2018-04-08T10:56:50.749Z,7.43
2018-04-08T10:59:20.614Z,7.27
2018-04-08T11:01:51.665Z,7.63
2018-04-08T11:04:31.985Z,8.03
2018-04-08T11:07:03.458Z,7.93
2018-04-08T11:09:32.648Z,7.20
2018-04-08T11:12:01.768Z,7.03
2018-04-08T11:14:31.702Z,8.20
2018-04-08T11:17:02.503Z,7.60
2018-04-08T11:19:31.440Z,8.20
2018-04-08T11:22:01.287Z,6.97
2018-04-08T11:24:30.234Z,7.23
2018-04-08T11:26:59.415Z,6.93
2018-04-08T11:29:28.762Z,7.00
2018-04-08T11:31:58.796Z,6.03
2018-04-08T11:34:27.830Z,7.67
2018-04-08T11:36:58.797Z,7.13
2018-04-08T11:39:27.974Z,7.10
2018-04-08T11:41:57.380Z,7.77
2018-04-08T11:44:28.337Z,6.40
2018-04-08T11:46:57.818Z,8.40
2018-04-08T11:49:27.022Z,7.63
2018-04-08T11:51:59.700Z,7.53
2018-04-08T11:54:29.556Z,6.93
2018-04-08T11:56:58.420Z,6.60
2018-04-08T11:59:27.711Z,6.93
2018-04-08T12:01:57.112Z,8.10
2018-04-08T12:04:26.301Z,6.33
2018-04-08T12:06:55.510Z,6.90
2018-04-08T12:09:25.424Z,8.10
2018-04-08T12:11:55.651Z,7.47
2018-04-08T12:14:24.642Z,6.63
2018-04-08T12:16:55.208Z,7.63
2018-04-08T12:19:24.390Z,7.43
2018-04-08T12:21:54.286Z,6.83
2018-04-08T12:24:23.251Z,6.73
2018-04-08T12:26:55.484Z,6.93
2018-04-08T12:29:25.612Z,7.80
2018-04-08T12:31:54.806Z,7.63
2018-04-08T12:34:26.439Z,8.70
2018-04-08T12:36:55.444Z,8.27
2018-04-08T12:39:24.408Z,8.53
2018-04-08T12:41:53.570Z,7.80
2018-04-08T12:44:22.419Z,7.80
2018-04-08T12:46:51.398Z,7.90
2018-04-08T12:49:21.503Z,8.00
2018-04-08T12:51:50.442Z,7.70
2018-04-08T12:54:20.570Z,7.80
2018-04-08T12:56:50.298Z,8.43
2018-04-08T12:59:19.337Z,7.77
2018-04-08T13:01:48.450Z,6.63
2018-04-08T13:04:24.533Z,6.77
2018-04-08T13:06:53.787Z,6.63
2018-04-08T13:09:22.789Z,7.50
2018-04-08T13:11:53.155Z,7.60
2018-04-08T13:14:22.456Z,7.50
2018-04-08T13:16:52.445Z,6.57
2018-04-08T13:19:21.527Z,6.80
2018-04-08T13:21:52.160Z,6.47
2018-04-08T13:24:22.016Z,7.33
2018-04-08T13:29:25.890Z,7.50
2018-04-08T13:31:55.676Z,8.07
2018-04-08T13:34:27.433Z,7.63
2018-04-08T13:36:57.412Z,8.00
2018-04-08T13:39:26.445Z,8.03
2018-04-08T13:41:56.241Z,8.17
2018-04-08T13:44:25.226Z,8.20
2018-04-08T13:46:54.864Z,6.97
2018-04-08T13:49:25.452Z,8.40
2018-04-08T13:51:55.349Z,7.77
2018-04-08T13:54:24.470Z,7.70
2018-04-08T13:56:54.455Z,6.47
2018-04-08T13:59:24.484Z,6.70
2018-04-08T14:01:53.671Z,6.60
2018-04-08T14:04:25.124Z,6.80
2018-04-08T14:06:55.591Z,6.80
2018-04-08T14:09:24.698Z,6.70
2018-04-08T14:11:54.768Z,7.07
2018-04-08T14:14:24.388Z,6.93
2018-04-08T14:16:53.884Z,6.10
2018-04-08T14:19:23.014Z,6.57
2018-04-08T14:21:51.877Z,7.00
2018-04-08T14:24:21.686Z,6.60
2018-04-08T14:26:51.014Z,7.33
2018-04-08T14:29:20.394Z,6.90
2018-04-08T14:31:49.273Z,6.97
2018-04-08T14:34:19.408Z,7.37
2018-04-08T14:36:48.402Z,6.57
2018-04-08T14:39:17.296Z,7.37
2018-04-08T14:41:48.197Z,6.30
2018-04-08T14:44:17.057Z,7.10
2018-04-08T14:46:45.949Z,7.03
2018-04-08T14:49:14.835Z,7.43
2018-04-08T14:51:43.732Z,7.03
2018-04-08T14:54:12.592Z,6.90
2018-04-08T14:56:41.539Z,7.00
2018-04-08T14:59:10.499Z,7.60
2018-04-08T15:01:46.661Z,7.63
2018-04-08T15:04:08.568Z,7.43
2018-04-08T15:06:37.622Z,7.03
2018-04-08T15:09:10.549Z,8.07
2018-04-08T15:11:40.299Z,8.00
2018-04-08T15:14:09.970Z,9.07
2018-04-08T15:16:41.750Z,8.60
2018-04-08T15:19:11.161Z,8.03
2018-04-08T15:21:41.352Z,6.90
2018-04-08T15:24:10.708Z,8.30
2018-04-08T15:26:39.852Z,7.77
2018-04-08T15:29:08.963Z,8.23
2018-04-08T15:34:13.183Z,6.90
2018-04-08T15:36:42.105Z,8.17
2018-04-08T15:39:12.294Z,7.30
2018-04-08T15:41:42.272Z,8.47
2018-04-08T15:44:11.681Z,8.07
2018-04-08T15:46:42.555Z,8.70
2018-04-08T15:49:11.858Z,9.63
2018-04-08T15:51:42.571Z,10.40
2018-04-08T15:54:12.396Z,9.80
2018-04-08T15:56:41.949Z,10.60
2018-04-08T15:59:11.349Z,11.40
2018-04-08T16:01:43.378Z,11.30
2018-04-08T16:04:13.206Z,11.17
2018-04-08T16:06:43.110Z,10.37
2018-04-08T16:09:13.354Z,11.90
2018-04-08T16:11:42.492Z,11.40
2018-04-08T16:14:11.581Z,11.80
2018-04-08T16:16:41.493Z,10.40
2018-04-08T16:19:10.587Z,11.57
2018-04-08T16:21:39.758Z,12.27
2018-04-08T16:24:10.507Z,12.10
2018-04-08T16:26:41.362Z,12.33
2018-04-08T16:29:10.584Z,12.87
2018-04-08T16:31:41.535Z,12.73
2018-04-08T16:34:11.080Z,14.70
2018-04-08T16:36:39.988Z,14.93
2018-04-08T16:39:10.202Z,16.90
2018-04-08T16:41:40.162Z,16.23
2018-04-08T16:44:09.880Z,17.53
2018-04-08T16:46:39.760Z,16.10
2018-04-08T16:49:08.872Z,18.80
2018-04-08T16:51:38.119Z,17.43
2018-04-08T16:54:08.284Z,15.50
2018-04-08T16:56:37.283Z,15.57
2018-04-08T16:59:06.274Z,15.40
2018-04-08T17:01:38.987Z,14.40
2018-04-08T17:04:08.223Z,15.70
2018-04-08T17:06:37.309Z,16.53
2018-04-08T17:09:10.296Z,17.90
2018-04-08T17:11:39.385Z,16.03
2018-04-08T17:14:09.244Z,16.70
2018-04-08T17:16:44.546Z,18.13
2018-04-08T17:19:14.737Z,16.43
2018-04-08T17:21:43.913Z,17.10
2018-04-08T17:24:16.508Z,15.73
2018-04-08T17:26:46.113Z,16.17
2018-04-08T17:29:15.310Z,15.50
2018-04-08T17:31:45.183Z,16.43
2018-04-08T17:34:15.614Z,18.33
2018-04-08T17:36:44.776Z,18.83
2018-04-08T17:39:13.988Z,19.40
2018-04-08T17:41:43.880Z,18.13
2018-04-08T17:44:12.918Z,19.87
2018-04-08T17:46:44.512Z,19.57
2018-04-08T17:49:13.557Z,16.60
2018-04-08T17:51:43.001Z,17.57
2018-04-08T17:54:12.868Z,16.57
2018-04-08T17:56:41.797Z,16.53
2018-04-08T17:59:10.999Z,14.50
2018-04-08T18:01:41.701Z,13.47
2018-04-08T18:04:11.714Z,14.50
2018-04-08T18:06:41.639Z,14.73
2018-04-08T18:09:13.595Z,13.97
2018-04-08T18:11:42.706Z,13.50
2018-04-08T18:14:12.477Z,15.27
2018-04-08T18:16:44.333Z,14.77
2018-04-08T18:19:13.490Z,13.97
2018-04-08T18:21:43.063Z,14.37
2018-04-08T18:24:12.252Z,14.03
2018-04-08T18:26:41.744Z,15.00
2018-04-08T18:29:10.946Z,12.80
2018-04-08T18:31:41.861Z,13.63
2018-04-08T18:34:11.607Z,14.20
2018-04-08T18:36:40.739Z,13.60
2018-04-08T18:39:09.929Z,14.40
2018-04-08T18:41:38.917Z,14.13
2018-04-08T18:44:08.093Z,14.33
2018-04-08T18:46:38.688Z,15.10
2018-04-08T18:49:07.851Z,14.97
2018-04-08T18:51:36.892Z,14.47
2018-04-08T18:54:07.127Z,16.03
2018-04-08T18:56:36.432Z,15.60
2018-04-08T18:59:05.619Z,15.83
2018-04-08T19:04:10.678Z,15.17
2018-04-08T19:06:42.443Z,15.10
2018-04-08T19:09:11.578Z,14.13
2018-04-08T19:11:40.717Z,13.53
2018-04-08T19:14:11.515Z,12.10
2018-04-08T19:16:43.236Z,13.90
2018-04-08T19:19:13.147Z,11.80
2018-04-08T19:21:43.176Z,11.70
2018-04-08T19:24:14.014Z,11.07
2018-04-08T19:26:43.300Z,12.63
2018-04-08T19:29:13.353Z,11.90
2018-04-08T19:31:43.342Z,11.40
2018-04-08T19:34:12.537Z,11.33
2018-04-08T19:36:41.565Z,11.47
2018-04-08T19:39:13.245Z,11.20
2018-04-08T19:41:47.525Z,12.00
2018-04-08T19:44:21.176Z,11.17
2018-04-08T19:46:50.251Z,10.70
2018-04-08T19:49:25.103Z,10.93
2018-04-08T19:51:54.074Z,11.90
2018-04-08T19:54:23.205Z,11.70
2018-04-08T19:56:53.155Z,11.80
2018-04-08T19:59:22.355Z,11.43
2018-04-08T20:01:52.103Z,11.37
2018-04-08T20:04:22.777Z,11.20
2018-04-08T20:06:51.940Z,11.00
2018-04-08T20:09:21.190Z,11.57
2018-04-08T20:11:53.253Z,10.80
2018-04-08T20:14:22.593Z,10.07
2018-04-08T20:16:51.693Z,11.23
2018-04-08T20:21:56.329Z,12.70
2018-04-08T20:24:26.110Z,10.70
2018-04-08T20:26:55.237Z,13.70
2018-04-08T20:29:24.207Z,13.10
2018-04-08T20:31:54.060Z,12.33
2018-04-08T20:36:58.698Z,12.17
2018-04-08T20:39:27.999Z,11.20
2018-04-08T20:41:57.099Z,11.50
2018-04-08T20:44:26.320Z,12.87
2018-04-08T20:46:55.394Z,12.40
2018-04-08T20:49:26.324Z,11.47
2018-04-08T20:51:55.641Z,11.80
2018-04-08T20:54:24.785Z,11.80
2018-04-08T20:56:54.862Z,11.50
2018-04-08T20:59:23.953Z,11.80
2018-04-08T21:01:54.232Z,10.73
2018-04-08T21:04:23.277Z,10.57
2018-04-08T21:06:52.171Z,10.90
2018-04-08T21:09:24.137Z,11.30
2018-04-08T21:11:53.271Z,11.00
2018-04-08T21:14:22.236Z,10.30
2018-04-08T21:16:53.511Z,10.07
2018-04-08T21:19:23.570Z,10.17
2018-04-08T21:21:54.430Z,9.90
2018-04-08T21:24:24.949Z,11.90
2018-04-08T21:26:54.052Z,11.03
2018-04-08T21:29:24.968Z,10.57
2018-04-08T21:31:53.985Z,10.10
2018-04-08T21:34:23.097Z,10.80
2018-04-08T21:36:54.948Z,10.70
2018-04-08T21:39:24.044Z,11.03
2018-04-08T21:41:53.240Z,11.90
2018-04-08T21:44:24.039Z,10.57
2018-04-08T21:46:53.170Z,12.17
2018-04-08T21:49:22.702Z,12.90
2018-04-08T21:51:55.452Z,11.90
2018-04-08T21:54:25.611Z,12.27
2018-04-08T21:56:55.137Z,11.90
2018-04-08T21:59:24.350Z,12.83
2018-04-08T22:01:54.170Z,12.80
2018-04-08T22:04:23.185Z,12.73
2018-04-08T22:06:55.112Z,12.40
2018-04-08T22:09:25.839Z,13.20
2018-04-08T22:11:55.826Z,12.17
2018-04-08T22:14:25.961Z,12.43
2018-04-08T22:17:00.251Z,12.40
2018-04-08T22:19:30.368Z,12.57
2018-04-08T22:22:01.036Z,12.40
2018-04-08T22:24:30.813Z,12.63
2018-04-08T22:27:00.375Z,12.40
2018-04-08T22:29:30.000Z,11.57
2018-04-08T22:31:59.087Z,11.87
2018-04-08T22:37:05.932Z,12.10
2018-04-08T22:39:35.842Z,12.33
2018-04-08T22:44:39.460Z,10.83
2018-04-08T22:47:08.866Z,11.70
2018-04-08T22:49:38.062Z,10.40
2018-04-08T22:52:09.767Z,9.90
2018-04-08T22:54:39.060Z,9.73
2018-04-08T22:57:08.165Z,10.07
2018-04-08T22:59:37.424Z,10.20
2018-04-08T23:02:06.624Z,10.10
2018-04-08T23:04:37.941Z,9.60
2018-04-08T23:07:10.355Z,9.90
2018-04-08T23:09:39.788Z,9.03
2018-04-08T23:12:08.943Z,11.67
2018-04-08T23:17:12.625Z,10.37
2018-04-08T23:19:43.230Z,11.33
2018-04-08T23:22:12.199Z,11.10
2018-04-08T23:24:41.295Z,10.87
2018-04-08T23:27:10.333Z,10.43
2018-04-08T23:29:39.763Z,10.10
2018-04-08T23:32:09.028Z,10.70
2018-04-08T23:34:38.008Z,11.67
2018-04-08T23:37:08.050Z,10.90
2018-04-08T23:39:37.957Z,10.60
2018-04-08T23:42:07.217Z,10.00
2018-04-08T23:44:36.516Z,10.87
2018-04-08T23:47:07.907Z,9.13
2018-04-08T23:49:37.992Z,9.53
2018-04-08T23:52:08.006Z,10.17
2018-04-08T23:54:38.598Z,9.40
2018-04-08T23:57:07.875Z,8.63
2018-04-08T23:59:36.931Z,10.20
